createdAt,value
2017-12-22T00:01:31.838Z,3.80
2017-12-22T00:03:58.390Z,3.80
2017-12-22T00:06:25.007Z,3.80
2017-12-22T00:08:51.554Z,3.80
2017-12-22T00:11:18.090Z,3.80
2017-12-22T00:13:44.902Z,3.80
2017-12-22T00:16:11.814Z,3.70
2017-12-22T00:18:38.366Z,3.70
2017-12-22T00:21:05.527Z,3.70
2017-12-22T00:23:32.107Z,3.70
2017-12-22T00:25:59.035Z,3.70
2017-12-22T00:28:25.647Z,3.70
2017-12-22T00:30:52.223Z,3.80
2017-12-22T00:33:18.801Z,3.80
2017-12-22T00:35:45.440Z,3.80
2017-12-22T00:38:11.983Z,3.80
2017-12-22T00:40:38.600Z,3.80
2017-12-22T00:43:05.302Z,3.70
2017-12-22T00:45:32.297Z,3.80
2017-12-22T00:47:58.821Z,3.80
2017-12-22T00:50:25.942Z,3.80
2017-12-22T00:52:52.494Z,3.90
2017-12-22T00:55:19.030Z,3.80
2017-12-22T00:57:45.682Z,3.80
2017-12-22T01:00:12.250Z,3.80
2017-12-22T01:02:38.830Z,3.80
2017-12-22T01:05:05.435Z,3.80
2017-12-22T01:07:32.007Z,3.80
2017-12-22T01:09:59.511Z,3.80
2017-12-22T01:12:26.098Z,3.80
2017-12-22T01:14:52.732Z,3.80
2017-12-22T01:17:25.311Z,3.80
2017-12-22T01:19:51.888Z,3.80
2017-12-22T01:22:18.439Z,3.80
2017-12-22T01:24:45.039Z,3.80
2017-12-22T01:27:11.596Z,3.80
2017-12-22T01:29:38.147Z,3.80
2017-12-22T01:32:04.742Z,3.80
2017-12-22T01:34:31.679Z,3.80
2017-12-22T01:36:58.220Z,3.80
2017-12-22T01:39:24.913Z,3.80
2017-12-22T01:41:51.463Z,3.80
2017-12-22T01:44:17.999Z,3.80
2017-12-22T01:46:44.961Z,3.90
2017-12-22T01:49:18.871Z,3.90
2017-12-22T01:51:45.833Z,3.90
2017-12-22T01:54:12.750Z,3.90
2017-12-22T01:56:39.290Z,3.90
2017-12-22T01:59:05.926Z,3.90
2017-12-22T02:01:32.466Z,3.90
2017-12-22T02:03:59.021Z,3.90
2017-12-22T02:06:25.614Z,3.90
2017-12-22T02:08:52.158Z,3.90
2017-12-22T02:11:19.073Z,3.90
2017-12-22T02:13:45.716Z,3.90
2017-12-22T02:16:12.254Z,3.90
2017-12-22T02:18:38.803Z,3.90
2017-12-22T02:21:05.427Z,3.90
2017-12-22T02:23:32.338Z,3.90
2017-12-22T02:25:58.886Z,4.00
2017-12-22T02:28:25.482Z,4.00
2017-12-22T02:30:52.029Z,4.00
2017-12-22T02:33:18.566Z,4.00
2017-12-22T02:35:45.527Z,4.00
2017-12-22T02:38:12.066Z,4.00
2017-12-22T02:40:39.082Z,4.10
2017-12-22T02:43:05.698Z,4.10
2017-12-22T02:45:32.251Z,4.10
2017-12-22T02:47:58.842Z,4.10
2017-12-22T02:50:25.474Z,4.10
2017-12-22T02:52:52.031Z,4.10
2017-12-22T02:55:18.575Z,4.10
2017-12-22T02:57:45.222Z,4.10
2017-12-22T03:00:11.802Z,4.10
2017-12-22T03:02:38.718Z,4.10
2017-12-22T03:05:05.742Z,4.10
2017-12-22T03:07:32.274Z,4.10
2017-12-22T03:09:59.198Z,4.10
2017-12-22T03:12:25.798Z,4.10
2017-12-22T03:14:52.339Z,4.20
2017-12-22T03:17:18.895Z,4.20
2017-12-22T03:19:45.549Z,4.20
2017-12-22T03:22:12.103Z,4.20
2017-12-22T03:24:38.653Z,4.10
2017-12-22T03:27:05.245Z,4.10
2017-12-22T03:29:31.794Z,4.10
2017-12-22T03:31:58.713Z,4.20
2017-12-22T03:34:25.534Z,4.20
2017-12-22T03:36:52.066Z,4.20
2017-12-22T03:39:18.986Z,4.20
2017-12-22T03:41:45.594Z,4.20
2017-12-22T03:44:12.144Z,4.20
2017-12-22T03:46:38.690Z,4.20
2017-12-22T03:49:05.411Z,4.20
2017-12-22T03:51:32.360Z,4.10
2017-12-22T03:53:59.265Z,4.10
2017-12-22T03:56:25.923Z,4.10
2017-12-22T03:58:52.509Z,4.10
2017-12-22T04:01:19.427Z,4.10
2017-12-22T04:03:46.042Z,4.10
2017-12-22T04:06:12.579Z,4.10
2017-12-22T04:08:39.134Z,4.10
2017-12-22T04:11:05.971Z,4.10
2017-12-22T04:13:32.886Z,4.10
2017-12-22T04:15:59.418Z,4.10
2017-12-22T04:18:26.016Z,4.10
2017-12-22T04:20:52.939Z,4.10
2017-12-22T04:23:19.470Z,4.10
2017-12-22T04:25:46.095Z,4.10
2017-12-22T04:28:12.642Z,4.10
2017-12-22T04:30:39.190Z,4.10
2017-12-22T04:33:05.794Z,4.10
2017-12-22T04:35:32.330Z,4.10
2017-12-22T04:37:58.869Z,4.10
2017-12-22T04:40:25.466Z,4.10
2017-12-22T04:42:52.372Z,4.10
2017-12-22T04:45:18.925Z,4.10
2017-12-22T04:47:45.510Z,4.10
2017-12-22T04:50:12.456Z,4.10
2017-12-22T04:52:39.362Z,4.20
2017-12-22T04:55:05.957Z,4.10
2017-12-22T04:57:32.879Z,4.10
2017-12-22T04:59:59.462Z,4.10
2017-12-22T05:02:26.437Z,4.20
2017-12-22T05:04:52.982Z,4.10
2017-12-22T05:07:19.902Z,4.10
2017-12-22T05:09:46.522Z,4.20
2017-12-22T05:12:13.062Z,4.20
2017-12-22T05:14:39.608Z,4.20
2017-12-22T05:17:06.197Z,4.20
2017-12-22T05:19:32.751Z,4.10
2017-12-22T05:21:59.298Z,4.10
2017-12-22T05:24:25.891Z,4.10
2017-12-22T05:26:52.426Z,4.10
2017-12-22T05:29:18.974Z,4.10
2017-12-22T05:31:45.569Z,4.10
2017-12-22T05:34:12.122Z,4.10
2017-12-22T05:36:38.695Z,4.10
2017-12-22T05:39:05.758Z,4.10
2017-12-22T05:41:32.667Z,4.10
2017-12-22T05:43:59.226Z,4.10
2017-12-22T05:46:25.835Z,4.10
2017-12-22T05:48:52.385Z,4.10
2017-12-22T05:51:18.925Z,4.10
2017-12-22T05:53:45.617Z,4.10
2017-12-22T05:56:12.154Z,4.10
2017-12-22T05:58:38.798Z,4.10
2017-12-22T06:01:05.384Z,4.10
2017-12-22T06:03:31.946Z,4.10
2017-12-22T06:05:58.862Z,4.10
2017-12-22T06:08:25.470Z,4.10
2017-12-22T06:10:52.006Z,4.10
2017-12-22T06:13:18.575Z,4.10
2017-12-22T06:15:45.198Z,4.10
2017-12-22T06:18:12.121Z,4.10
2017-12-22T06:20:38.662Z,4.10
2017-12-22T06:23:05.262Z,4.10
2017-12-22T06:25:31.793Z,4.10
2017-12-22T06:27:58.705Z,4.10
2017-12-22T06:30:25.307Z,4.10
2017-12-22T06:32:51.854Z,4.10
2017-12-22T06:35:18.402Z,4.10
2017-12-22T06:37:45.006Z,4.10
2017-12-22T06:40:12.490Z,4.10
2017-12-22T06:42:39.042Z,4.20
2017-12-22T06:45:05.638Z,4.20
2017-12-22T06:47:32.178Z,4.10
2017-12-22T06:49:58.713Z,4.10
2017-12-22T06:52:25.333Z,4.10
2017-12-22T06:54:51.866Z,4.10
2017-12-22T06:57:18.438Z,4.10
2017-12-22T06:59:45.522Z,4.10
2017-12-22T07:02:12.071Z,4.10
2017-12-22T07:04:38.610Z,4.10
2017-12-22T07:07:05.242Z,4.10
2017-12-22T07:09:32.165Z,4.10
2017-12-22T07:11:58.729Z,4.20
2017-12-22T07:14:25.374Z,4.10
2017-12-22T07:16:51.955Z,4.10
2017-12-22T07:19:18.510Z,4.20
2017-12-22T07:21:45.139Z,4.20
2017-12-22T07:24:12.063Z,4.10
2017-12-22T07:26:38.610Z,4.10
2017-12-22T07:29:05.211Z,4.10
2017-12-22T07:31:31.787Z,4.10
2017-12-22T07:33:58.331Z,4.10
2017-12-22T07:36:24.966Z,4.10
2017-12-22T07:38:51.511Z,4.10
2017-12-22T07:41:18.046Z,4.20
2017-12-22T07:43:44.655Z,4.20
2017-12-22T07:46:11.239Z,4.20
2017-12-22T07:48:37.811Z,4.20
2017-12-22T07:51:04.413Z,4.20
2017-12-22T07:53:31.339Z,4.30
2017-12-22T07:55:57.883Z,4.30
2017-12-22T07:58:24.683Z,4.30
2017-12-22T08:00:51.255Z,4.30
2017-12-22T08:03:17.789Z,4.30
2017-12-22T08:05:44.387Z,4.30
2017-12-22T08:08:10.931Z,4.30
2017-12-22T08:10:37.473Z,4.30
2017-12-22T08:13:04.095Z,4.30
2017-12-22T08:15:30.678Z,4.30
2017-12-22T08:17:57.230Z,4.30
2017-12-22T08:20:23.830Z,4.30
2017-12-22T08:22:50.366Z,4.30
2017-12-22T08:25:16.922Z,4.30
2017-12-22T08:27:43.518Z,4.40
2017-12-22T08:30:10.084Z,4.40
2017-12-22T08:32:36.999Z,4.50
2017-12-22T08:35:03.802Z,4.50
2017-12-22T08:37:30.726Z,4.50
2017-12-22T08:39:57.280Z,4.50
2017-12-22T08:42:23.903Z,4.50
2017-12-22T08:44:50.452Z,4.50
2017-12-22T08:47:17.070Z,4.60
2017-12-22T08:49:43.678Z,4.70
2017-12-22T08:52:10.240Z,4.70
2017-12-22T08:54:37.170Z,4.70
2017-12-22T08:57:03.782Z,4.70
2017-12-22T08:59:30.419Z,4.60
2017-12-22T09:01:56.954Z,4.60
2017-12-22T09:04:23.570Z,4.70
2017-12-22T09:06:50.122Z,4.70
2017-12-22T09:09:16.699Z,4.80
2017-12-22T09:11:43.325Z,4.80
2017-12-22T09:14:10.238Z,4.80
2017-12-22T09:16:36.777Z,4.80
2017-12-22T09:19:03.411Z,4.80
2017-12-22T09:21:29.972Z,4.80
2017-12-22T09:23:56.537Z,4.80
2017-12-22T09:26:23.338Z,4.80
2017-12-22T09:28:50.247Z,4.90
2017-12-22T09:31:16.798Z,4.90
2017-12-22T09:33:43.487Z,4.90
2017-12-22T09:36:10.051Z,4.90
2017-12-22T09:38:36.594Z,5.00
2017-12-22T09:41:03.316Z,5.00
2017-12-22T09:43:29.877Z,5.00
2017-12-22T09:45:56.791Z,5.00
2017-12-22T09:48:23.464Z,5.00
2017-12-22T09:50:49.998Z,4.90
2017-12-22T09:53:16.549Z,4.90
2017-12-22T09:55:43.239Z,4.90
2017-12-22T09:58:10.202Z,4.90
2017-12-22T10:00:36.876Z,4.90
2017-12-22T10:03:03.693Z,4.90
2017-12-22T10:05:30.704Z,4.90
2017-12-22T10:07:57.670Z,5.00
2017-12-22T10:10:24.267Z,5.00
2017-12-22T10:12:50.879Z,5.00
2017-12-22T10:15:18.350Z,5.10
2017-12-22T10:17:44.971Z,5.20
2017-12-22T10:20:11.519Z,5.30
2017-12-22T10:22:38.079Z,5.30
2017-12-22T10:25:04.802Z,5.30
2017-12-22T10:27:31.383Z,5.40
2017-12-22T10:29:57.942Z,5.40
2017-12-22T10:32:24.662Z,5.40
2017-12-22T10:34:51.205Z,5.50
2017-12-22T10:37:17.794Z,5.60
2017-12-22T10:39:45.102Z,5.60
2017-12-22T10:42:11.654Z,5.60
2017-12-22T10:44:38.216Z,5.60
2017-12-22T10:47:04.815Z,5.70
2017-12-22T10:49:31.429Z,5.80
2017-12-22T10:51:57.966Z,5.80
2017-12-22T10:54:24.566Z,5.80
2017-12-22T10:56:51.264Z,5.80
2017-12-22T10:59:17.822Z,5.70
2017-12-22T11:01:44.522Z,5.70
2017-12-22T11:04:11.070Z,5.70
2017-12-22T11:06:39.057Z,5.70
2017-12-22T11:09:05.871Z,5.70
2017-12-22T11:11:32.510Z,5.70
2017-12-22T11:13:59.071Z,5.70
2017-12-22T11:16:26.313Z,5.70
2017-12-22T11:18:52.951Z,5.60
2017-12-22T11:21:19.513Z,5.70
2017-12-22T11:23:46.454Z,5.70
2017-12-22T11:26:13.010Z,5.70
2017-12-22T11:28:39.566Z,5.70
2017-12-22T11:31:06.174Z,5.70
2017-12-22T11:33:32.722Z,5.60
2017-12-22T11:35:59.270Z,5.60
2017-12-22T11:38:25.963Z,5.60
2017-12-22T11:40:52.903Z,5.70
2017-12-22T11:43:19.446Z,5.70
2017-12-22T11:45:46.246Z,5.70
2017-12-22T11:48:13.162Z,5.80
2017-12-22T11:50:39.720Z,5.80
2017-12-22T11:53:06.350Z,5.80
2017-12-22T11:55:32.983Z,5.80
2017-12-22T11:57:59.565Z,5.80
2017-12-22T12:00:26.178Z,5.80
2017-12-22T12:02:52.813Z,5.80
2017-12-22T12:05:19.354Z,5.80
2017-12-22T12:07:45.955Z,5.80
2017-12-22T12:10:12.559Z,5.80
2017-12-22T12:12:39.101Z,5.80
2017-12-22T12:15:05.717Z,5.80
2017-12-22T12:17:32.622Z,5.90
2017-12-22T12:19:59.175Z,5.90
2017-12-22T12:22:26.024Z,5.90
2017-12-22T12:24:52.566Z,6.00
2017-12-22T12:27:19.138Z,6.10
2017-12-22T12:29:46.155Z,6.10
2017-12-22T12:32:12.710Z,6.10
2017-12-22T12:34:39.284Z,6.10
2017-12-22T12:37:05.886Z,6.00
2017-12-22T12:39:32.455Z,6.00
2017-12-22T12:41:59.007Z,6.00
2017-12-22T12:44:25.755Z,6.00
2017-12-22T12:46:52.306Z,6.10
2017-12-22T12:49:18.866Z,6.00
2017-12-22T12:51:45.458Z,6.00
2017-12-22T12:54:12.379Z,5.90
2017-12-22T12:56:38.958Z,5.90
2017-12-22T12:59:05.666Z,5.90
2017-12-22T13:01:32.242Z,5.90
2017-12-22T13:03:58.794Z,5.90
2017-12-22T13:06:25.521Z,5.90
2017-12-22T13:08:52.074Z,5.90
2017-12-22T13:11:18.638Z,5.90
2017-12-22T13:13:45.274Z,5.80
2017-12-22T13:16:11.830Z,5.80
2017-12-22T13:18:38.388Z,5.80
2017-12-22T13:21:05.369Z,5.80
2017-12-22T13:23:32.283Z,5.80
2017-12-22T13:25:58.847Z,5.80
2017-12-22T13:28:25.457Z,5.70
2017-12-22T13:30:52.019Z,5.70
2017-12-22T13:33:18.574Z,5.70
2017-12-22T13:35:45.174Z,5.70
2017-12-22T13:38:11.768Z,5.70
2017-12-22T13:40:38.321Z,5.70
2017-12-22T13:43:05.318Z,5.70
2017-12-22T13:45:32.234Z,5.60
2017-12-22T13:47:58.785Z,5.70
2017-12-22T13:50:25.411Z,5.60
2017-12-22T13:52:51.950Z,5.60
2017-12-22T13:55:18.510Z,5.60
2017-12-22T13:57:45.181Z,5.60
2017-12-22T14:00:11.747Z,5.60
2017-12-22T14:02:38.714Z,5.50
2017-12-22T14:05:05.682Z,5.60
2017-12-22T14:07:32.233Z,5.60
2017-12-22T14:09:58.814Z,5.60
2017-12-22T14:12:25.426Z,5.60
2017-12-22T14:14:51.975Z,5.50
2017-12-22T14:17:18.538Z,5.50
2017-12-22T14:19:45.154Z,5.50
2017-12-22T14:22:12.086Z,5.60
2017-12-22T14:24:38.638Z,5.60
2017-12-22T14:27:05.255Z,5.50
2017-12-22T14:29:31.821Z,5.50
2017-12-22T14:31:58.389Z,5.50
2017-12-22T14:34:25.362Z,5.50
2017-12-22T14:36:52.276Z,5.50
2017-12-22T14:39:18.847Z,5.50
2017-12-22T14:41:45.851Z,5.50
2017-12-22T14:44:12.387Z,5.50
2017-12-22T14:46:38.931Z,5.50
2017-12-22T14:49:05.538Z,5.50
2017-12-22T14:51:32.091Z,5.50
2017-12-22T14:53:59.037Z,5.40
2017-12-22T14:56:25.754Z,5.40
2017-12-22T14:58:52.318Z,5.40
2017-12-22T15:01:18.877Z,5.40
2017-12-22T15:03:45.553Z,5.40
2017-12-22T15:06:12.102Z,5.40
2017-12-22T15:08:39.030Z,5.40
2017-12-22T15:11:05.651Z,5.40
2017-12-22T15:13:32.202Z,5.40
2017-12-22T15:15:58.756Z,5.40
2017-12-22T15:18:25.346Z,5.40
2017-12-22T15:20:52.862Z,5.40
2017-12-22T15:23:19.463Z,5.40
2017-12-22T15:25:46.470Z,5.40
2017-12-22T15:28:13.019Z,5.40
2017-12-22T15:30:39.619Z,5.40
2017-12-22T15:33:06.594Z,5.40
2017-12-22T15:35:33.146Z,5.40
2017-12-22T15:37:59.742Z,5.40
2017-12-22T15:40:26.348Z,5.40
2017-12-22T15:42:52.924Z,5.40
2017-12-22T15:45:19.474Z,5.40
2017-12-22T15:47:46.123Z,5.50
2017-12-22T15:50:12.772Z,5.40
2017-12-22T15:52:39.342Z,5.40
2017-12-22T15:55:05.942Z,5.40
2017-12-22T15:57:32.499Z,5.40
2017-12-22T15:59:59.050Z,5.40
2017-12-22T16:02:25.656Z,5.30
2017-12-22T16:04:52.635Z,5.40
2017-12-22T16:07:19.181Z,5.40
2017-12-22T16:09:45.778Z,5.40
2017-12-22T16:12:12.326Z,5.40
2017-12-22T16:14:38.866Z,5.40
2017-12-22T16:17:05.546Z,5.40
2017-12-22T16:19:32.450Z,5.30
2017-12-22T16:21:58.993Z,5.30
2017-12-22T16:24:26.005Z,5.30
2017-12-22T16:26:52.970Z,5.40
2017-12-22T16:29:19.486Z,5.40
2017-12-22T16:31:46.116Z,5.40
2017-12-22T16:34:12.678Z,5.30
2017-12-22T16:36:39.243Z,5.30
2017-12-22T16:39:06.248Z,5.30
2017-12-22T16:41:32.834Z,5.30
2017-12-22T16:43:59.403Z,5.30
2017-12-22T16:46:26.387Z,5.20
2017-12-22T16:48:52.938Z,5.20
2017-12-22T16:51:19.494Z,5.20
2017-12-22T16:53:46.152Z,5.20
2017-12-22T16:56:12.778Z,5.20
2017-12-22T16:58:39.314Z,5.30
2017-12-22T17:01:05.995Z,5.20
2017-12-22T17:03:32.578Z,5.20
2017-12-22T17:05:59.517Z,5.30
2017-12-22T17:08:26.134Z,5.20
2017-12-22T17:10:52.691Z,5.20
2017-12-22T17:13:19.251Z,5.20
2017-12-22T17:15:45.854Z,5.20
2017-12-22T17:18:12.799Z,5.30
2017-12-22T17:20:39.720Z,5.30
2017-12-22T17:23:06.314Z,5.30
2017-12-22T17:25:33.345Z,5.30
2017-12-22T17:27:59.901Z,5.30
2017-12-22T17:30:26.500Z,5.30
2017-12-22T17:32:53.107Z,5.30
2017-12-22T17:35:20.030Z,5.30
2017-12-22T17:37:46.641Z,5.30
2017-12-22T17:40:13.457Z,5.30
2017-12-22T17:42:40.423Z,5.30
2017-12-22T17:45:07.435Z,5.30
2017-12-22T17:47:33.983Z,5.30
2017-12-22T17:50:00.554Z,5.30
2017-12-22T17:52:27.154Z,5.30
2017-12-22T17:54:53.705Z,5.30
2017-12-22T17:57:20.270Z,5.40
2017-12-22T17:59:46.885Z,5.40
2017-12-22T18:02:13.435Z,5.40
2017-12-22T18:04:40.046Z,5.40
2017-12-22T18:07:06.739Z,5.40
2017-12-22T18:09:33.356Z,5.40
2017-12-22T18:12:00.343Z,5.40
2017-12-22T18:14:27.031Z,5.40
2017-12-22T18:16:53.592Z,5.40
2017-12-22T18:19:20.155Z,5.40
2017-12-22T18:21:47.146Z,5.40
2017-12-22T18:24:15.607Z,5.40
2017-12-22T18:26:42.170Z,5.40
2017-12-22T18:29:09.159Z,5.40
2017-12-22T18:31:35.719Z,5.40
2017-12-22T18:34:02.266Z,5.40
2017-12-22T18:36:28.954Z,5.40
2017-12-22T18:38:55.506Z,5.40
2017-12-22T18:41:22.433Z,5.40
2017-12-22T18:43:49.066Z,5.40
2017-12-22T18:46:15.634Z,5.40
2017-12-22T18:48:42.182Z,5.40
2017-12-22T18:51:08.777Z,5.40
2017-12-22T18:53:35.338Z,5.40
2017-12-22T18:56:01.976Z,5.40
2017-12-22T18:58:28.623Z,5.30
2017-12-22T19:00:55.178Z,5.30
2017-12-22T19:03:29.690Z,5.40
2017-12-22T19:05:56.608Z,5.30
2017-12-22T19:08:23.161Z,5.40
2017-12-22T19:10:50.050Z,5.30
2017-12-22T19:13:17.000Z,5.30
2017-12-22T19:15:43.927Z,5.30
2017-12-22T19:18:10.714Z,5.30
2017-12-22T19:20:37.650Z,5.30
2017-12-22T19:23:04.204Z,5.30
2017-12-22T19:25:30.810Z,5.30
2017-12-22T19:27:57.375Z,5.40
2017-12-22T19:30:24.384Z,5.30
2017-12-22T19:32:51.147Z,5.30
2017-12-22T19:35:17.706Z,5.30
2017-12-22T19:37:44.295Z,5.30
2017-12-22T19:40:11.088Z,5.30
2017-12-22T19:42:37.657Z,5.30
2017-12-22T19:45:04.279Z,5.30
2017-12-22T19:47:30.938Z,5.30
2017-12-22T19:49:57.490Z,5.30
2017-12-22T19:52:24.031Z,5.30
2017-12-22T19:54:50.642Z,5.30
2017-12-22T19:57:17.453Z,5.30
2017-12-22T19:59:44.265Z,5.30
2017-12-22T20:02:11.179Z,5.30
2017-12-22T20:04:38.040Z,5.30
2017-12-22T20:07:04.876Z,5.30
2017-12-22T20:09:31.800Z,5.30
2017-12-22T20:11:58.631Z,5.30
2017-12-22T20:14:25.583Z,5.40
2017-12-22T20:16:52.976Z,5.40
2017-12-22T20:19:19.531Z,5.40
2017-12-22T20:21:46.166Z,5.40
2017-12-22T20:24:12.850Z,5.40
2017-12-22T20:26:39.486Z,5.40
2017-12-22T20:29:06.063Z,5.40
2017-12-22T20:31:32.996Z,5.40
2017-12-22T20:33:59.927Z,5.40
2017-12-22T20:36:28.422Z,5.40
2017-12-22T20:38:55.546Z,5.40
2017-12-22T20:41:23.066Z,5.40
2017-12-22T20:43:50.478Z,5.50
2017-12-22T20:46:17.212Z,5.50
2017-12-22T20:48:43.762Z,5.50
2017-12-22T20:51:13.267Z,5.40
2017-12-22T20:53:40.144Z,5.40
2017-12-22T20:56:06.790Z,5.40
2017-12-22T20:58:33.975Z,5.40
2017-12-22T21:01:01.218Z,5.50
2017-12-22T21:03:29.649Z,5.50
2017-12-22T21:05:56.821Z,5.40
2017-12-22T21:08:23.493Z,5.40
2017-12-22T21:10:50.050Z,5.40
2017-12-22T21:13:22.424Z,5.50
2017-12-22T21:15:50.002Z,5.40
2017-12-22T21:18:16.666Z,5.40
2017-12-22T21:20:43.788Z,5.40
2017-12-22T21:23:10.450Z,5.40
2017-12-22T21:25:37.121Z,5.40
2017-12-22T21:28:03.767Z,5.40
2017-12-22T21:30:30.379Z,5.40
2017-12-22T21:32:56.941Z,5.40
2017-12-22T21:35:23.802Z,5.40
2017-12-22T21:37:50.699Z,5.40
2017-12-22T21:40:17.500Z,5.40
2017-12-22T21:42:44.296Z,5.40
2017-12-22T21:45:11.143Z,5.40
2017-12-22T21:47:37.975Z,5.40
2017-12-22T21:50:04.797Z,5.40
2017-12-22T21:52:31.667Z,5.40
2017-12-22T21:54:58.527Z,5.30
2017-12-22T21:57:25.336Z,5.40
2017-12-22T21:59:52.203Z,5.40
2017-12-22T22:02:19.140Z,5.30
2017-12-22T22:04:46.004Z,5.40
2017-12-22T22:07:14.109Z,5.40
2017-12-22T22:09:40.927Z,5.40
2017-12-22T22:12:07.841Z,5.40
2017-12-22T22:14:34.725Z,5.40
2017-12-22T22:17:01.512Z,5.30
2017-12-22T22:19:28.706Z,5.40
2017-12-22T22:21:55.741Z,5.40
2017-12-22T22:24:22.919Z,5.40
2017-12-22T22:26:49.741Z,5.40
2017-12-22T22:29:17.147Z,5.30
2017-12-22T22:31:43.937Z,5.30
2017-12-22T22:34:10.721Z,5.30
2017-12-22T22:36:37.997Z,5.30
2017-12-22T22:39:04.820Z,5.30
2017-12-22T22:41:31.628Z,5.30
2017-12-22T22:43:58.502Z,5.30
2017-12-22T22:46:25.296Z,5.30
2017-12-22T22:48:52.151Z,5.30
2017-12-22T22:51:19.420Z,5.40
2017-12-22T22:53:46.589Z,5.30
2017-12-22T22:56:13.411Z,5.40
2017-12-22T22:58:40.317Z,5.30
2017-12-22T23:01:07.112Z,5.30
2017-12-22T23:03:33.905Z,5.40
2017-12-22T23:06:00.785Z,5.40
2017-12-22T23:08:27.596Z,5.40
2017-12-22T23:10:54.772Z,5.40
2017-12-22T23:13:22.148Z,5.40
2017-12-22T23:15:49.006Z,5.40
2017-12-22T23:18:15.790Z,5.40
2017-12-22T23:20:42.616Z,5.40
2017-12-22T23:23:09.416Z,5.40
2017-12-22T23:25:36.208Z,5.40
2017-12-22T23:28:03.058Z,5.40
2017-12-22T23:30:30.252Z,5.30
2017-12-22T23:32:57.066Z,5.30
2017-12-22T23:35:24.286Z,5.30
2017-12-22T23:37:51.105Z,5.30
2017-12-22T23:40:17.646Z,5.40
2017-12-22T23:42:44.251Z,5.50
2017-12-22T23:45:10.802Z,5.50
2017-12-22T23:47:37.354Z,5.40
2017-12-22T23:50:04.027Z,5.40
2017-12-22T23:52:30.958Z,5.40
2017-12-22T23:54:57.501Z,5.40
2017-12-22T23:57:24.283Z,5.40
2017-12-22T23:59:51.258Z,5.40
